Linthicum, Maryland
Current Conditions -  °F | °C
As of 12:54 PM on Friday 31 Oct 2014 (Local Time) from KBWI Reporting Station
Broken Clouds Broken Clouds  
Wind Chill: 53°   Ceiling: 5500
Heat Index: 53°   Visibility: 10mi
Dew Point: 34°   Wind: 7mph
Humidity: 48%   Direction: 70°ENE
Pressure: 29.93"   Gusts: NA
Location:  39.2087°N, 76.6692°W
Report Text: KBWI 311654Z 07006KT 10SM FEW032 BKN055 BKN150 BKN250 12/01 A2993 RMK AO2 SLP136 T01170011
Loading
Personal Weather Stations






























Interactive Weather Map
Tropical Storm Tracking
New forecast layout! Learn more

10-Day Weather Forecast

Advertisements
Track Severe Weather on mobile